sensor_id;sensor_type;location;lat;lon;timestamp;P1;durP1;ratioP1;P2;durP2;ratioP2
15449;SDS011;7826;49.784;9.934;2023-07-20T00:01:30;5.40;;;4.90;;
15449;SDS011;7826;49.784;9.934;2023-07-20T00:03:56;6.13;;;5.53;;
15449;SDS011;7826;49.784;9.934;2023-07-20T00:06:24;5.00;;;4.60;;
15449;SDS011;7826;49.784;9.934;2023-07-20T00:08:53;5.97;;;5.43;;
15449;SDS011;7826;49.784;9.934;2023-07-20T00:11:21;6.10;;;5.50;;
15449;SDS011;7826;49.784;9.934;2023-07-20T00:13:51;6.07;;;5.47;;
15449;SDS011;7826;49.784;9.934;2023-07-20T00:16:18;7.17;;;6.00;;
15449;SDS011;7826;49.784;9.934;2023-07-20T00:18:44;5.57;;;5.17;;
15449;SDS011;7826;49.784;9.934;2023-07-20T00:21:11;6.03;;;5.20;;
15449;SDS011;7826;49.784;9.934;2023-07-20T00:23:37;5.17;;;4.67;;
15449;SDS011;7826;49.784;9.934;2023-07-20T00:26:04;6.23;;;5.63;;
15449;SDS011;7826;49.784;9.934;2023-07-20T00:28:30;6.40;;;5.90;;
15449;SDS011;7826;49.784;9.934;2023-07-20T00:30:59;5.83;;;5.10;;
15449;SDS011;7826;49.784;9.934;2023-07-20T00:33:26;6.37;;;5.40;;
15449;SDS011;7826;49.784;9.934;2023-07-20T00:35:53;6.10;;;5.10;;
15449;SDS011;7826;49.784;9.934;2023-07-20T00:38:19;6.83;;;5.90;;
15449;SDS011;7826;49.784;9.934;2023-07-20T00:40:46;7.57;;;5.73;;
15449;SDS011;7826;49.784;9.934;2023-07-20T00:43:14;5.63;;;5.00;;
15449;SDS011;7826;49.784;9.934;2023-07-20T00:45:41;5.90;;;5.40;;
15449;SDS011;7826;49.784;9.934;2023-07-20T00:48:09;6.40;;;5.13;;
15449;SDS011;7826;49.784;9.934;2023-07-20T00:50:36;5.63;;;5.13;;
15449;SDS011;7826;49.784;9.934;2023-07-20T00:53:03;6.40;;;5.80;;
15449;SDS011;7826;49.784;9.934;2023-07-20T00:55:31;5.47;;;5.03;;
15449;SDS011;7826;49.784;9.934;2023-07-20T00:57:58;6.57;;;5.87;;
15449;SDS011;7826;49.784;9.934;2023-07-20T01:00:25;5.97;;;5.27;;
15449;SDS011;7826;49.784;9.934;2023-07-20T01:02:52;4.90;;;4.43;;
15449;SDS011;7826;49.784;9.934;2023-07-20T01:05:18;6.03;;;5.43;;
15449;SDS011;7826;49.784;9.934;2023-07-20T01:07:49;6.50;;;5.07;;
15449;SDS011;7826;49.784;9.934;2023-07-20T01:12:54;5.40;;;4.90;;
15449;SDS011;7826;49.784;9.934;2023-07-20T01:15:22;7.07;;;5.00;;
15449;SDS011;7826;49.784;9.934;2023-07-20T01:17:49;6.27;;;5.67;;
15449;SDS011;7826;49.784;9.934;2023-07-20T01:20:16;5.60;;;5.10;;
15449;SDS011;7826;49.784;9.934;2023-07-20T01:25:17;5.63;;;5.13;;
15449;SDS011;7826;49.784;9.934;2023-07-20T01:33:11;5.80;;;5.30;;
15449;SDS011;7826;49.784;9.934;2023-07-20T01:35:39;6.17;;;5.57;;
15449;SDS011;7826;49.784;9.934;2023-07-20T01:38:10;5.10;;;4.70;;
15449;SDS011;7826;49.784;9.934;2023-07-20T01:40:38;6.87;;;5.17;;
15449;SDS011;7826;49.784;9.934;2023-07-20T01:43:06;7.33;;;5.87;;
15449;SDS011;7826;49.784;9.934;2023-07-20T01:45:33;5.73;;;5.07;;
15449;SDS011;7826;49.784;9.934;2023-07-20T01:47:59;6.27;;;5.67;;
15449;SDS011;7826;49.784;9.934;2023-07-20T01:50:26;7.40;;;5.10;;
15449;SDS011;7826;49.784;9.934;2023-07-20T01:52:52;6.00;;;5.50;;
15449;SDS011;7826;49.784;9.934;2023-07-20T01:55:19;6.50;;;5.90;;
15449;SDS011;7826;49.784;9.934;2023-07-20T01:57:45;6.33;;;5.73;;
15449;SDS011;7826;49.784;9.934;2023-07-20T02:00:12;5.70;;;5.20;;
15449;SDS011;7826;49.784;9.934;2023-07-20T02:02:38;6.30;;;5.80;;
15449;SDS011;7826;49.784;9.934;2023-07-20T02:05:06;6.00;;;5.50;;
15449;SDS011;7826;49.784;9.934;2023-07-20T02:07:32;6.60;;;5.47;;
15449;SDS011;7826;49.784;9.934;2023-07-20T02:09:59;8.77;;;6.07;;
15449;SDS011;7826;49.784;9.934;2023-07-20T02:12:25;7.67;;;6.00;;
15449;SDS011;7826;49.784;9.934;2023-07-20T02:14:52;6.67;;;5.77;;
15449;SDS011;7826;49.784;9.934;2023-07-20T02:17:18;7.10;;;6.50;;
15449;SDS011;7826;49.784;9.934;2023-07-20T02:19:45;7.93;;;7.23;;
15449;SDS011;7826;49.784;9.934;2023-07-20T02:22:12;9.20;;;7.03;;
15449;SDS011;7826;49.784;9.934;2023-07-20T02:24:39;7.57;;;6.40;;
15449;SDS011;7826;49.784;9.934;2023-07-20T02:27:05;8.93;;;7.90;;
15449;SDS011;7826;49.784;9.934;2023-07-20T02:29:32;7.90;;;7.10;;
15449;SDS011;7826;49.784;9.934;2023-07-20T02:31:59;12.33;;;8.70;;
15449;SDS011;7826;49.784;9.934;2023-07-20T02:34:26;9.23;;;8.43;;
15449;SDS011;7826;49.784;9.934;2023-07-20T02:36:52;11.03;;;10.03;;
15449;SDS011;7826;49.784;9.934;2023-07-20T02:39:21;11.13;;;9.80;;
15449;SDS011;7826;49.784;9.934;2023-07-20T02:41:48;12.53;;;10.90;;
15449;SDS011;7826;49.784;9.934;2023-07-20T02:44:14;15.53;;;12.60;;
15449;SDS011;7826;49.784;9.934;2023-07-20T02:46:41;15.30;;;13.70;;
15449;SDS011;7826;49.784;9.934;2023-07-20T02:49:08;15.63;;;14.03;;
15449;SDS011;7826;49.784;9.934;2023-07-20T02:51:34;18.73;;;14.70;;
15449;SDS011;7826;49.784;9.934;2023-07-20T02:54:01;20.73;;;13.90;;
15449;SDS011;7826;49.784;9.934;2023-07-20T02:56:27;15.63;;;14.03;;
15449;SDS011;7826;49.784;9.934;2023-07-20T02:58:54;16.27;;;14.57;;
15449;SDS011;7826;49.784;9.934;2023-07-20T03:01:20;17.80;;;15.17;;
15449;SDS011;7826;49.784;9.934;2023-07-20T03:03:47;17.43;;;15.07;;
15449;SDS011;7826;49.784;9.934;2023-07-20T03:06:14;15.53;;;13.93;;
15449;SDS011;7826;49.784;9.934;2023-07-20T03:08:41;15.70;;;14.10;;
15449;SDS011;7826;49.784;9.934;2023-07-20T03:11:15;18.07;;;13.40;;
15449;SDS011;7826;49.784;9.934;2023-07-20T03:13:42;16.30;;;14.67;;
15449;SDS011;7826;49.784;9.934;2023-07-20T03:16:09;15.47;;;13.87;;
15449;SDS011;7826;49.784;9.934;2023-07-20T03:18:37;13.83;;;12.47;;
15449;SDS011;7826;49.784;9.934;2023-07-20T03:21:05;15.97;;;14.23;;
15449;SDS011;7826;49.784;9.934;2023-07-20T03:23:32;12.30;;;11.20;;
15449;SDS011;7826;49.784;9.934;2023-07-20T03:25:58;14.90;;;13.30;;
15449;SDS011;7826;49.784;9.934;2023-07-20T03:28:25;15.07;;;13.00;;
15449;SDS011;7826;49.784;9.934;2023-07-20T03:30:55;15.30;;;12.93;;
15449;SDS011;7826;49.784;9.934;2023-07-20T03:33:26;12.50;;;11.30;;
15449;SDS011;7826;49.784;9.934;2023-07-20T03:35:55;12.47;;;10.83;;
15449;SDS011;7826;49.784;9.934;2023-07-20T03:38:22;12.87;;;11.57;;
15449;SDS011;7826;49.784;9.934;2023-07-20T03:40:52;12.33;;;11.07;;
15449;SDS011;7826;49.784;9.934;2023-07-20T03:43:21;12.87;;;11.67;;
15449;SDS011;7826;49.784;9.934;2023-07-20T03:45:48;13.37;;;11.97;;
15449;SDS011;7826;49.784;9.934;2023-07-20T03:48:16;14.73;;;12.53;;
15449;SDS011;7826;49.784;9.934;2023-07-20T03:50:46;11.90;;;10.70;;
15449;SDS011;7826;49.784;9.934;2023-07-20T03:53:14;16.70;;;13.67;;
15449;SDS011;7826;49.784;9.934;2023-07-20T03:55:42;17.80;;;14.33;;
15449;SDS011;7826;49.784;9.934;2023-07-20T03:58:14;13.13;;;11.90;;
15449;SDS011;7826;49.784;9.934;2023-07-20T04:00:45;14.70;;;13.13;;
15449;SDS011;7826;49.784;9.934;2023-07-20T04:03:12;15.47;;;12.87;;
15449;SDS011;7826;49.784;9.934;2023-07-20T04:05:39;16.57;;;12.20;;
15449;SDS011;7826;49.784;9.934;2023-07-20T04:08:06;13.70;;;12.00;;
15449;SDS011;7826;49.784;9.934;2023-07-20T04:10:33;15.90;;;11.67;;
15449;SDS011;7826;49.784;9.934;2023-07-20T04:13:00;13.17;;;11.70;;
15449;SDS011;7826;49.784;9.934;2023-07-20T04:15:26;13.30;;;12.10;;
15449;SDS011;7826;49.784;9.934;2023-07-20T04:17:53;12.63;;;11.33;;
15449;SDS011;7826;49.784;9.934;2023-07-20T04:20:21;15.87;;;11.93;;
15449;SDS011;7826;49.784;9.934;2023-07-20T04:22:51;11.77;;;10.50;;
15449;SDS011;7826;49.784;9.934;2023-07-20T04:25:18;14.43;;;13.03;;
15449;SDS011;7826;49.784;9.934;2023-07-20T04:27:44;18.17;;;12.27;;
15449;SDS011;7826;49.784;9.934;2023-07-20T04:30:13;13.07;;;10.97;;
15449;SDS011;7826;49.784;9.934;2023-07-20T04:32:45;11.07;;;9.80;;
15449;SDS011;7826;49.784;9.934;2023-07-20T04:35:17;12.40;;;11.20;;
15449;SDS011;7826;49.784;9.934;2023-07-20T04:38:03;12.33;;;11.03;;
15449;SDS011;7826;49.784;9.934;2023-07-20T04:40:30;13.03;;;11.30;;
15449;SDS011;7826;49.784;9.934;2023-07-20T04:42:56;11.40;;;10.30;;
15449;SDS011;7826;49.784;9.934;2023-07-20T04:45:23;12.20;;;10.97;;
15449;SDS011;7826;49.784;9.934;2023-07-20T04:47:50;11.53;;;10.43;;
15449;SDS011;7826;49.784;9.934;2023-07-20T04:50:17;11.33;;;10.27;;
15449;SDS011;7826;49.784;9.934;2023-07-20T04:52:43;12.47;;;11.27;;
15449;SDS011;7826;49.784;9.934;2023-07-20T04:55:12;13.87;;;11.80;;
15449;SDS011;7826;49.784;9.934;2023-07-20T04:57:38;12.77;;;11.10;;
15449;SDS011;7826;49.784;9.934;2023-07-20T05:00:05;12.43;;;11.20;;
15449;SDS011;7826;49.784;9.934;2023-07-20T05:02:32;11.10;;;10.10;;
15449;SDS011;7826;49.784;9.934;2023-07-20T05:04:59;10.97;;;9.90;;
15449;SDS011;7826;49.784;9.934;2023-07-20T05:07:27;12.27;;;11.07;;
15449;SDS011;7826;49.784;9.934;2023-07-20T05:09:53;11.33;;;10.10;;
15449;SDS011;7826;49.784;9.934;2023-07-20T05:12:20;12.77;;;10.97;;
15449;SDS011;7826;49.784;9.934;2023-07-20T05:14:47;12.10;;;10.77;;
15449;SDS011;7826;49.784;9.934;2023-07-20T05:17:13;12.17;;;10.97;;
15449;SDS011;7826;49.784;9.934;2023-07-20T05:19:40;12.33;;;11.03;;
15449;SDS011;7826;49.784;9.934;2023-07-20T05:22:06;14.27;;;10.60;;
15449;SDS011;7826;49.784;9.934;2023-07-20T05:24:33;12.17;;;10.97;;
15449;SDS011;7826;49.784;9.934;2023-07-20T05:26:59;12.33;;;10.30;;
15449;SDS011;7826;49.784;9.934;2023-07-20T05:29:26;11.40;;;10.20;;
15449;SDS011;7826;49.784;9.934;2023-07-20T05:31:53;10.70;;;9.70;;
15449;SDS011;7826;49.784;9.934;2023-07-20T05:34:19;12.70;;;10.23;;
15449;SDS011;7826;49.784;9.934;2023-07-20T05:36:46;12.67;;;9.77;;
15449;SDS011;7826;49.784;9.934;2023-07-20T05:39:13;13.23;;;9.17;;
15449;SDS011;7826;49.784;9.934;2023-07-20T05:41:39;10.00;;;9.10;;
15449;SDS011;7826;49.784;9.934;2023-07-20T05:44:06;10.33;;;9.33;;
15449;SDS011;7826;49.784;9.934;2023-07-20T05:46:32;10.13;;;9.13;;
15449;SDS011;7826;49.784;9.934;2023-07-20T05:48:59;10.03;;;9.03;;
15449;SDS011;7826;49.784;9.934;2023-07-20T05:51:26;8.93;;;8.03;;
15449;SDS011;7826;49.784;9.934;2023-07-20T05:53:52;8.43;;;7.63;;
15449;SDS011;7826;49.784;9.934;2023-07-20T05:56:19;9.97;;;8.50;;
15449;SDS011;7826;49.784;9.934;2023-07-20T05:58:45;8.03;;;7.33;;
15449;SDS011;7826;49.784;9.934;2023-07-20T06:01:12;8.03;;;7.23;;
15449;SDS011;7826;49.784;9.934;2023-07-20T06:03:39;7.77;;;6.97;;
15449;SDS011;7826;49.784;9.934;2023-07-20T06:06:05;7.20;;;6.63;;
15449;SDS011;7826;49.784;9.934;2023-07-20T06:08:32;7.50;;;6.40;;
15449;SDS011;7826;49.784;9.934;2023-07-20T06:10:59;6.30;;;5.80;;
15449;SDS011;7826;49.784;9.934;2023-07-20T06:13:25;5.77;;;5.33;;
15449;SDS011;7826;49.784;9.934;2023-07-20T06:15:52;5.67;;;5.17;;
15449;SDS011;7826;49.784;9.934;2023-07-20T06:18:19;5.27;;;4.87;;
15449;SDS011;7826;49.784;9.934;2023-07-20T06:20:50;3.70;;;3.40;;
15449;SDS011;7826;49.784;9.934;2023-07-20T06:23:19;3.90;;;3.60;;
15449;SDS011;7826;49.784;9.934;2023-07-20T06:25:46;4.13;;;3.40;;
15449;SDS011;7826;49.784;9.934;2023-07-20T06:28:13;3.70;;;3.40;;
15449;SDS011;7826;49.784;9.934;2023-07-20T06:30:39;3.43;;;3.13;;
15449;SDS011;7826;49.784;9.934;2023-07-20T06:33:06;4.73;;;3.17;;
15449;SDS011;7826;49.784;9.934;2023-07-20T06:35:33;5.63;;;3.27;;
15449;SDS011;7826;49.784;9.934;2023-07-20T06:38:01;3.80;;;3.43;;
15449;SDS011;7826;49.784;9.934;2023-07-20T06:40:30;3.97;;;3.00;;
15449;SDS011;7826;49.784;9.934;2023-07-20T06:42:56;3.20;;;3.00;;
15449;SDS011;7826;49.784;9.934;2023-07-20T06:45:23;3.37;;;3.17;;
15449;SDS011;7826;49.784;9.934;2023-07-20T06:47:50;3.20;;;3.00;;
15449;SDS011;7826;49.784;9.934;2023-07-20T06:50:16;4.37;;;2.43;;
15449;SDS011;7826;49.784;9.934;2023-07-20T06:52:43;3.03;;;2.70;;
15449;SDS011;7826;49.784;9.934;2023-07-20T06:55:09;2.83;;;2.60;;
15449;SDS011;7826;49.784;9.934;2023-07-20T06:57:36;3.90;;;2.33;;
15449;SDS011;7826;49.784;9.934;2023-07-20T07:00:06;3.53;;;2.60;;
15449;SDS011;7826;49.784;9.934;2023-07-20T07:02:36;3.07;;;2.67;;
15449;SDS011;7826;49.784;9.934;2023-07-20T07:05:06;2.73;;;2.20;;
15449;SDS011;7826;49.784;9.934;2023-07-20T07:07:32;2.83;;;2.63;;
15449;SDS011;7826;49.784;9.934;2023-07-20T07:10:03;2.70;;;2.50;;
15449;SDS011;7826;49.784;9.934;2023-07-20T07:12:52;3.43;;;2.50;;
15449;SDS011;7826;49.784;9.934;2023-07-20T07:16:12;2.87;;;2.20;;
15449;SDS011;7826;49.784;9.934;2023-07-20T07:18:57;2.53;;;2.07;;
15449;SDS011;7826;49.784;9.934;2023-07-20T07:21:27;2.23;;;2.03;;
15449;SDS011;7826;49.784;9.934;2023-07-20T07:24:01;4.43;;;2.00;;
15449;SDS011;7826;49.784;9.934;2023-07-20T07:26:42;2.03;;;1.93;;
15449;SDS011;7826;49.784;9.934;2023-07-20T07:29:13;2.10;;;1.90;;
15449;SDS011;7826;49.784;9.934;2023-07-20T07:32:03;3.17;;;1.97;;
15449;SDS011;7826;49.784;9.934;2023-07-20T07:34:31;2.37;;;2.10;;
15449;SDS011;7826;49.784;9.934;2023-07-20T07:37:15;3.43;;;2.03;;
15449;SDS011;7826;49.784;9.934;2023-07-20T07:39:52;1.97;;;1.87;;
15449;SDS011;7826;49.784;9.934;2023-07-20T07:42:23;3.37;;;2.00;;
15449;SDS011;7826;49.784;9.934;2023-07-20T07:44:53;2.17;;;2.00;;
15449;SDS011;7826;49.784;9.934;2023-07-20T07:47:34;2.13;;;2.03;;
15449;SDS011;7826;49.784;9.934;2023-07-20T07:50:16;2.07;;;1.90;;
15449;SDS011;7826;49.784;9.934;2023-07-20T07:53:27;2.40;;;1.97;;
15449;SDS011;7826;49.784;9.934;2023-07-20T07:56:17;1.80;;;1.70;;
15449;SDS011;7826;49.784;9.934;2023-07-20T07:59:02;3.33;;;1.90;;
15449;SDS011;7826;49.784;9.934;2023-07-20T08:05:12;1.90;;;1.80;;
15449;SDS011;7826;49.784;9.934;2023-07-20T08:08:04;1.80;;;1.70;;
15449;SDS011;7826;49.784;9.934;2023-07-20T08:10:36;2.40;;;1.60;;
15449;SDS011;7826;49.784;9.934;2023-07-20T08:13:20;1.80;;;1.70;;
15449;SDS011;7826;49.784;9.934;2023-07-20T08:15:50;2.80;;;1.80;;
15449;SDS011;7826;49.784;9.934;2023-07-20T08:18:21;1.93;;;1.70;;
15449;SDS011;7826;49.784;9.934;2023-07-20T08:20:47;2.67;;;1.20;;
15449;SDS011;7826;49.784;9.934;2023-07-20T08:23:15;1.60;;;1.33;;
15449;SDS011;7826;49.784;9.934;2023-07-20T08:25:41;1.30;;;1.20;;
15449;SDS011;7826;49.784;9.934;2023-07-20T08:28:13;1.40;;;1.30;;
15449;SDS011;7826;49.784;9.934;2023-07-20T08:30:45;1.40;;;1.30;;
15449;SDS011;7826;49.784;9.934;2023-07-20T08:33:16;1.83;;;1.50;;
15449;SDS011;7826;49.784;9.934;2023-07-20T08:35:52;2.37;;;1.67;;
15449;SDS011;7826;49.784;9.934;2023-07-20T08:38:25;1.50;;;1.30;;
15449;SDS011;7826;49.784;9.934;2023-07-20T08:40:54;1.30;;;1.10;;
15449;SDS011;7826;49.784;9.934;2023-07-20T08:43:24;2.90;;;1.10;;
15449;SDS011;7826;49.784;9.934;2023-07-20T08:49:32;0.70;;;0.70;;
15449;SDS011;7826;49.784;9.934;2023-07-20T08:51:59;0.97;;;0.73;;
15449;SDS011;7826;49.784;9.934;2023-07-20T08:54:27;1.90;;;1.00;;
15449;SDS011;7826;49.784;9.934;2023-07-20T08:57:03;3.97;;;1.07;;
15449;SDS011;7826;49.784;9.934;2023-07-20T08:59:31;1.47;;;0.80;;
15449;SDS011;7826;49.784;9.934;2023-07-20T09:01:58;0.83;;;0.80;;
15449;SDS011;7826;49.784;9.934;2023-07-20T09:04:25;2.53;;;1.17;;
15449;SDS011;7826;49.784;9.934;2023-07-20T09:06:52;0.90;;;0.90;;
15449;SDS011;7826;49.784;9.934;2023-07-20T09:09:19;3.17;;;1.00;;
15449;SDS011;7826;49.784;9.934;2023-07-20T09:11:47;1.03;;;1.03;;
15449;SDS011;7826;49.784;9.934;2023-07-20T09:14:14;1.13;;;1.00;;
15449;SDS011;7826;49.784;9.934;2023-07-20T09:16:55;1.53;;;1.10;;
15449;SDS011;7826;49.784;9.934;2023-07-20T09:19:22;2.60;;;0.90;;
15449;SDS011;7826;49.784;9.934;2023-07-20T09:21:49;1.13;;;1.03;;
15449;SDS011;7826;49.784;9.934;2023-07-20T09:24:19;1.33;;;0.90;;
15449;SDS011;7826;49.784;9.934;2023-07-20T09:26:51;1.70;;;1.07;;
15449;SDS011;7826;49.784;9.934;2023-07-20T09:29:20;1.13;;;1.10;;
15449;SDS011;7826;49.784;9.934;2023-07-20T09:32:01;1.33;;;1.10;;
15449;SDS011;7826;49.784;9.934;2023-07-20T09:34:32;2.37;;;1.20;;
15449;SDS011;7826;49.784;9.934;2023-07-20T09:36:59;1.37;;;1.10;;
15449;SDS011;7826;49.784;9.934;2023-07-20T09:39:26;1.20;;;1.10;;
15449;SDS011;7826;49.784;9.934;2023-07-20T09:41:53;1.30;;;1.20;;
15449;SDS011;7826;49.784;9.934;2023-07-20T09:44:20;2.97;;;1.43;;
15449;SDS011;7826;49.784;9.934;2023-07-20T09:46:47;1.30;;;1.20;;
15449;SDS011;7826;49.784;9.934;2023-07-20T09:49:14;1.60;;;1.50;;
15449;SDS011;7826;49.784;9.934;2023-07-20T09:51:44;2.53;;;1.70;;
15449;SDS011;7826;49.784;9.934;2023-07-20T09:54:12;1.60;;;1.50;;
15449;SDS011;7826;49.784;9.934;2023-07-20T09:56:39;2.53;;;1.57;;
15449;SDS011;7826;49.784;9.934;2023-07-20T09:59:07;1.70;;;1.60;;
15449;SDS011;7826;49.784;9.934;2023-07-20T10:01:34;2.77;;;1.40;;
15449;SDS011;7826;49.784;9.934;2023-07-20T10:04:04;3.60;;;1.40;;
15449;SDS011;7826;49.784;9.934;2023-07-20T10:06:34;2.93;;;1.10;;
15449;SDS011;7826;49.784;9.934;2023-07-20T10:09:05;1.53;;;1.23;;
15449;SDS011;7826;49.784;9.934;2023-07-20T10:11:35;1.33;;;1.23;;
15449;SDS011;7826;49.784;9.934;2023-07-20T10:14:05;1.23;;;1.10;;
15449;SDS011;7826;49.784;9.934;2023-07-20T10:16:34;1.20;;;1.20;;
15449;SDS011;7826;49.784;9.934;2023-07-20T10:19:07;2.00;;;1.23;;
15449;SDS011;7826;49.784;9.934;2023-07-20T10:21:51;2.47;;;1.10;;
15449;SDS011;7826;49.784;9.934;2023-07-20T10:24:33;1.00;;;1.00;;
15449;SDS011;7826;49.784;9.934;2023-07-20T10:27:00;2.20;;;1.10;;
15449;SDS011;7826;49.784;9.934;2023-07-20T10:29:27;1.13;;;1.10;;
15449;SDS011;7826;49.784;9.934;2023-07-20T10:31:55;1.00;;;1.00;;
15449;SDS011;7826;49.784;9.934;2023-07-20T10:34:23;1.07;;;1.07;;
15449;SDS011;7826;49.784;9.934;2023-07-20T10:36:50;1.47;;;1.17;;
15449;SDS011;7826;49.784;9.934;2023-07-20T10:39:36;1.73;;;1.37;;
15449;SDS011;7826;49.784;9.934;2023-07-20T10:42:03;1.00;;;1.00;;
15449;SDS011;7826;49.784;9.934;2023-07-20T10:44:33;1.40;;;1.10;;
15449;SDS011;7826;49.784;9.934;2023-07-20T10:47:03;2.27;;;1.00;;
15449;SDS011;7826;49.784;9.934;2023-07-20T10:49:35;1.10;;;1.10;;
15449;SDS011;7826;49.784;9.934;2023-07-20T10:52:21;2.33;;;1.20;;
15449;SDS011;7826;49.784;9.934;2023-07-20T10:54:48;0.90;;;0.90;;
15449;SDS011;7826;49.784;9.934;2023-07-20T10:57:22;1.00;;;1.00;;
15449;SDS011;7826;49.784;9.934;2023-07-20T10:59:50;1.30;;;1.20;;
15449;SDS011;7826;49.784;9.934;2023-07-20T11:02:20;1.10;;;1.10;;
15449;SDS011;7826;49.784;9.934;2023-07-20T11:04:47;1.33;;;1.23;;
15449;SDS011;7826;49.784;9.934;2023-07-20T11:07:15;1.63;;;1.07;;
15449;SDS011;7826;49.784;9.934;2023-07-20T11:09:43;1.20;;;1.20;;
15449;SDS011;7826;49.784;9.934;2023-07-20T11:12:10;1.37;;;1.20;;
15449;SDS011;7826;49.784;9.934;2023-07-20T11:14:40;1.13;;;1.03;;
15449;SDS011;7826;49.784;9.934;2023-07-20T11:17:11;1.30;;;1.20;;
15449;SDS011;7826;49.784;9.934;2023-07-20T11:19:39;3.60;;;1.20;;
15449;SDS011;7826;49.784;9.934;2023-07-20T11:22:09;1.30;;;1.20;;
15449;SDS011;7826;49.784;9.934;2023-07-20T11:24:39;1.20;;;1.20;;
15449;SDS011;7826;49.784;9.934;2023-07-20T11:27:06;1.30;;;1.20;;
15449;SDS011;7826;49.784;9.934;2023-07-20T11:29:34;1.60;;;1.07;;
15449;SDS011;7826;49.784;9.934;2023-07-20T11:32:03;1.07;;;1.07;;
15449;SDS011;7826;49.784;9.934;2023-07-20T11:34:30;2.10;;;0.97;;
15449;SDS011;7826;49.784;9.934;2023-07-20T11:36:58;0.93;;;0.93;;
15449;SDS011;7826;49.784;9.934;2023-07-20T11:39:25;0.80;;;0.80;;
15449;SDS011;7826;49.784;9.934;2023-07-20T11:41:52;2.23;;;1.17;;
15449;SDS011;7826;49.784;9.934;2023-07-20T11:44:24;0.80;;;0.80;;
15449;SDS011;7826;49.784;9.934;2023-07-20T11:47:07;0.90;;;0.90;;
15449;SDS011;7826;49.784;9.934;2023-07-20T11:49:38;2.73;;;0.90;;
15449;SDS011;7826;49.784;9.934;2023-07-20T11:52:07;1.50;;;1.00;;
15449;SDS011;7826;49.784;9.934;2023-07-20T11:54:35;0.83;;;0.83;;
15449;SDS011;7826;49.784;9.934;2023-07-20T11:57:03;1.00;;;1.00;;
15449;SDS011;7826;49.784;9.934;2023-07-20T11:59:31;0.83;;;0.80;;
15449;SDS011;7826;49.784;9.934;2023-07-20T12:02:00;1.63;;;0.90;;
15449;SDS011;7826;49.784;9.934;2023-07-20T12:04:30;0.70;;;0.70;;
15449;SDS011;7826;49.784;9.934;2023-07-20T12:06:57;1.63;;;1.00;;
15449;SDS011;7826;49.784;9.934;2023-07-20T12:09:25;0.90;;;0.90;;
15449;SDS011;7826;49.784;9.934;2023-07-20T12:11:51;0.83;;;0.83;;
15449;SDS011;7826;49.784;9.934;2023-07-20T12:14:18;21.67;;;2.87;;
15449;SDS011;7826;49.784;9.934;2023-07-20T12:16:51;0.90;;;0.90;;
15449;SDS011;7826;49.784;9.934;2023-07-20T12:19:20;0.80;;;0.80;;
15449;SDS011;7826;49.784;9.934;2023-07-20T12:21:51;0.90;;;0.90;;
15449;SDS011;7826;49.784;9.934;2023-07-20T12:24:26;1.63;;;0.77;;
15449;SDS011;7826;49.784;9.934;2023-07-20T12:26:56;0.70;;;0.70;;
15449;SDS011;7826;49.784;9.934;2023-07-20T12:29:24;1.50;;;0.90;;
15449;SDS011;7826;49.784;9.934;2023-07-20T12:31:52;1.00;;;1.00;;
15449;SDS011;7826;49.784;9.934;2023-07-20T12:34:18;1.90;;;0.70;;
15449;SDS011;7826;49.784;9.934;2023-07-20T12:36:45;0.80;;;0.80;;
15449;SDS011;7826;49.784;9.934;2023-07-20T12:39:11;0.70;;;0.70;;
15449;SDS011;7826;49.784;9.934;2023-07-20T12:41:38;1.10;;;0.80;;
15449;SDS011;7826;49.784;9.934;2023-07-20T12:44:05;1.53;;;0.80;;
15449;SDS011;7826;49.784;9.934;2023-07-20T12:46:31;1.73;;;0.67;;
15449;SDS011;7826;49.784;9.934;2023-07-20T12:49:01;1.60;;;0.90;;
15449;SDS011;7826;49.784;9.934;2023-07-20T12:51:27;0.63;;;0.63;;
15449;SDS011;7826;49.784;9.934;2023-07-20T12:53:54;0.60;;;0.60;;
15449;SDS011;7826;49.784;9.934;2023-07-20T12:56:20;3.13;;;1.07;;
15449;SDS011;7826;49.784;9.934;2023-07-20T12:58:47;0.70;;;0.70;;
15449;SDS011;7826;49.784;9.934;2023-07-20T13:01:15;0.60;;;0.60;;
15449;SDS011;7826;49.784;9.934;2023-07-20T13:03:42;1.17;;;0.90;;
15449;SDS011;7826;49.784;9.934;2023-07-20T13:06:09;1.90;;;0.60;;
15449;SDS011;7826;49.784;9.934;2023-07-20T13:08:35;0.70;;;0.70;;
15449;SDS011;7826;49.784;9.934;2023-07-20T13:11:02;0.60;;;0.60;;
15449;SDS011;7826;49.784;9.934;2023-07-20T13:13:31;0.77;;;0.70;;
15449;SDS011;7826;49.784;9.934;2023-07-20T13:15:57;0.60;;;0.60;;
15449;SDS011;7826;49.784;9.934;2023-07-20T13:18:24;0.60;;;0.60;;
15449;SDS011;7826;49.784;9.934;2023-07-20T13:20:50;0.90;;;0.90;;
15449;SDS011;7826;49.784;9.934;2023-07-20T13:23:17;0.73;;;0.73;;
15449;SDS011;7826;49.784;9.934;2023-07-20T13:25:44;0.63;;;0.63;;
15449;SDS011;7826;49.784;9.934;2023-07-20T13:28:10;0.93;;;0.70;;
15449;SDS011;7826;49.784;9.934;2023-07-20T13:30:37;1.20;;;0.83;;
15449;SDS011;7826;49.784;9.934;2023-07-20T13:33:03;1.03;;;0.80;;
15449;SDS011;7826;49.784;9.934;2023-07-20T13:35:30;0.80;;;0.80;;
15449;SDS011;7826;49.784;9.934;2023-07-20T13:37:57;0.70;;;0.70;;
15449;SDS011;7826;49.784;9.934;2023-07-20T13:40:23;0.60;;;0.60;;
15449;SDS011;7826;49.784;9.934;2023-07-20T13:42:50;0.83;;;0.83;;
15449;SDS011;7826;49.784;9.934;2023-07-20T13:45:16;1.07;;;0.70;;
15449;SDS011;7826;49.784;9.934;2023-07-20T13:47:43;0.73;;;0.73;;
15449;SDS011;7826;49.784;9.934;2023-07-20T13:50:10;0.83;;;0.70;;
15449;SDS011;7826;49.784;9.934;2023-07-20T13:52:37;1.60;;;0.77;;
15449;SDS011;7826;49.784;9.934;2023-07-20T13:55:04;0.93;;;0.87;;
15449;SDS011;7826;49.784;9.934;2023-07-20T13:57:31;0.80;;;0.80;;
15449;SDS011;7826;49.784;9.934;2023-07-20T13:59:58;0.70;;;0.70;;
15449;SDS011;7826;49.784;9.934;2023-07-20T14:02:26;0.87;;;0.80;;
15449;SDS011;7826;49.784;9.934;2023-07-20T14:04:53;0.80;;;0.80;;
15449;SDS011;7826;49.784;9.934;2023-07-20T14:07:22;0.80;;;0.80;;
15449;SDS011;7826;49.784;9.934;2023-07-20T14:09:48;0.60;;;0.60;;
15449;SDS011;7826;49.784;9.934;2023-07-20T14:12:15;0.93;;;0.93;;
15449;SDS011;7826;49.784;9.934;2023-07-20T14:14:42;1.07;;;0.77;;
15449;SDS011;7826;49.784;9.934;2023-07-20T14:17:08;0.83;;;0.80;;
15449;SDS011;7826;49.784;9.934;2023-07-20T14:19:36;0.70;;;0.70;;
15449;SDS011;7826;49.784;9.934;2023-07-20T14:22:04;0.77;;;0.77;;
15449;SDS011;7826;49.784;9.934;2023-07-20T14:24:31;0.70;;;0.70;;
15449;SDS011;7826;49.784;9.934;2023-07-20T14:26:57;0.70;;;0.70;;
15449;SDS011;7826;49.784;9.934;2023-07-20T14:29:26;1.00;;;1.00;;
15449;SDS011;7826;49.784;9.934;2023-07-20T14:31:53;1.37;;;0.70;;
15449;SDS011;7826;49.784;9.934;2023-07-20T14:34:19;2.00;;;0.87;;
15449;SDS011;7826;49.784;9.934;2023-07-20T14:36:46;0.70;;;0.70;;
15449;SDS011;7826;49.784;9.934;2023-07-20T14:39:12;1.00;;;0.80;;
15449;SDS011;7826;49.784;9.934;2023-07-20T14:41:39;1.03;;;0.90;;
15449;SDS011;7826;49.784;9.934;2023-07-20T14:44:06;2.27;;;1.00;;
15449;SDS011;7826;49.784;9.934;2023-07-20T14:46:32;1.13;;;0.80;;
15449;SDS011;7826;49.784;9.934;2023-07-20T14:48:59;0.80;;;0.80;;
15449;SDS011;7826;49.784;9.934;2023-07-20T14:51:26;1.23;;;1.03;;
15449;SDS011;7826;49.784;9.934;2023-07-20T14:53:57;0.80;;;0.80;;
15449;SDS011;7826;49.784;9.934;2023-07-20T14:56:24;0.70;;;0.70;;
15449;SDS011;7826;49.784;9.934;2023-07-20T14:58:51;0.90;;;0.90;;
15449;SDS011;7826;49.784;9.934;2023-07-20T15:01:17;2.30;;;1.00;;
15449;SDS011;7826;49.784;9.934;2023-07-20T15:03:44;1.00;;;1.00;;
15449;SDS011;7826;49.784;9.934;2023-07-20T15:06:11;0.73;;;0.73;;
15449;SDS011;7826;49.784;9.934;2023-07-20T15:08:37;0.90;;;0.90;;
15449;SDS011;7826;49.784;9.934;2023-07-20T15:11:04;5.83;;;1.00;;
15449;SDS011;7826;49.784;9.934;2023-07-20T15:13:30;0.90;;;0.90;;
15449;SDS011;7826;49.784;9.934;2023-07-20T15:15:57;3.13;;;1.30;;
15449;SDS011;7826;49.784;9.934;2023-07-20T15:18:24;1.00;;;1.00;;
15449;SDS011;7826;49.784;9.934;2023-07-20T15:20:50;1.27;;;1.00;;
15449;SDS011;7826;49.784;9.934;2023-07-20T15:23:19;1.00;;;1.00;;